createdAt,value
2022-12-22T00:02:32.903Z,0.90
2022-12-22T00:05:18.334Z,0.95
2022-12-22T00:08:04.224Z,0.90
2022-12-22T00:10:49.930Z,0.93
2022-12-22T00:13:36.686Z,0.89
2022-12-22T00:16:22.214Z,0.85
2022-12-22T00:19:07.790Z,0.88
2022-12-22T00:21:53.482Z,0.92
2022-12-22T00:24:39.034Z,0.86
2022-12-22T00:27:24.475Z,0.93
2022-12-22T00:30:11.204Z,0.97
2022-12-22T00:32:56.860Z,0.99
2022-12-22T00:35:43.627Z,1.01
2022-12-22T00:38:32.720Z,1.10
2022-12-22T00:41:18.045Z,1.03
2022-12-22T00:44:03.605Z,1.02
2022-12-22T00:46:50.832Z,1.01
2022-12-22T00:49:36.366Z,1.05
2022-12-22T00:52:22.127Z,1.05
2022-12-22T00:55:11.782Z,1.07
2022-12-22T00:57:59.939Z,1.11
2022-12-22T01:00:45.389Z,1.10
2022-12-22T01:03:32.298Z,1.15
2022-12-22T01:06:18.775Z,1.15
2022-12-22T01:09:04.416Z,1.07
2022-12-22T01:11:49.998Z,1.10
2022-12-22T01:14:35.354Z,1.21
2022-12-22T01:17:20.779Z,1.18
2022-12-22T01:20:07.467Z,1.13
2022-12-22T01:22:52.805Z,1.06
2022-12-22T01:25:38.396Z,1.10
2022-12-22T01:28:24.215Z,1.04
2022-12-22T01:31:09.523Z,1.11
2022-12-22T01:33:54.984Z,1.18
2022-12-22T01:36:41.534Z,1.16
2022-12-22T01:39:26.715Z,1.14
2022-12-22T01:42:12.019Z,1.16
2022-12-22T01:44:57.056Z,1.16
2022-12-22T01:47:52.672Z,1.18
2022-12-22T01:50:40.107Z,1.18
2022-12-22T01:53:29.552Z,1.25
2022-12-22T01:56:16.239Z,1.20
2022-12-22T01:59:03.705Z,1.24
2022-12-22T02:01:50.195Z,1.27
2022-12-22T02:04:36.846Z,1.28
2022-12-22T02:07:26.309Z,1.35
2022-12-22T02:10:18.414Z,1.36
2022-12-22T02:13:09.758Z,1.40
2022-12-22T02:16:00.986Z,1.42
2022-12-22T02:18:49.623Z,1.28
2022-12-22T02:21:37.239Z,1.39
2022-12-22T02:24:30.541Z,1.40
2022-12-22T02:30:11.786Z,1.44
2022-12-22T02:33:05.188Z,1.43
2022-12-22T02:35:59.099Z,1.46
2022-12-22T02:38:49.813Z,1.39
2022-12-22T02:41:40.280Z,1.48
2022-12-22T02:44:36.015Z,1.42
2022-12-22T02:47:24.994Z,1.38
2022-12-22T02:50:11.929Z,1.48
2022-12-22T02:52:58.537Z,1.45
2022-12-22T02:55:44.658Z,1.34
2022-12-22T02:58:30.118Z,1.37
2022-12-22T03:01:17.490Z,1.28
2022-12-22T03:04:03.191Z,1.41
2022-12-22T03:06:48.654Z,1.42
2022-12-22T03:09:33.809Z,1.40
2022-12-22T03:12:19.238Z,1.34
2022-12-22T03:15:05.092Z,1.41
2022-12-22T03:17:51.953Z,1.45
2022-12-22T03:20:37.732Z,1.39
2022-12-22T03:23:23.685Z,1.39
2022-12-22T03:25:51.877Z,1.36
2022-12-22T03:28:20.615Z,1.31
2022-12-22T03:30:54.045Z,1.40
2022-12-22T03:33:23.778Z,1.32
2022-12-22T03:35:51.780Z,1.45
2022-12-22T03:38:19.761Z,1.29
2022-12-22T03:40:48.042Z,1.32
2022-12-22T03:43:34.363Z,1.27
2022-12-22T03:46:20.085Z,1.20
2022-12-22T03:49:09.785Z,1.14
2022-12-22T03:51:38.264Z,1.28
2022-12-22T03:54:06.462Z,1.09
2022-12-22T03:56:34.682Z,1.20
2022-12-22T03:59:02.628Z,1.19
2022-12-22T04:01:30.825Z,1.19
2022-12-22T04:04:00.432Z,1.15
2022-12-22T04:06:28.571Z,1.18
2022-12-22T04:08:56.558Z,1.25
2022-12-22T04:11:41.780Z,1.28
2022-12-22T04:14:09.740Z,1.24
2022-12-22T04:16:37.933Z,1.28
2022-12-22T04:19:08.192Z,1.31
2022-12-22T04:21:36.233Z,1.41
2022-12-22T04:24:04.314Z,1.38
2022-12-22T04:26:32.630Z,1.37
2022-12-22T04:29:00.676Z,1.25
2022-12-22T04:31:28.655Z,1.23
2022-12-22T04:33:56.710Z,1.21
2022-12-22T04:36:25.996Z,1.23
2022-12-22T04:38:54.065Z,1.31
2022-12-22T04:41:22.158Z,1.31
2022-12-22T04:43:50.203Z,1.33
2022-12-22T04:46:18.240Z,1.33
2022-12-22T04:48:46.255Z,1.30
2022-12-22T04:51:14.237Z,1.30
2022-12-22T04:53:43.723Z,1.37
2022-12-22T04:56:11.745Z,1.40
2022-12-22T04:58:39.966Z,1.39
2022-12-22T05:01:11.470Z,1.32
2022-12-22T05:03:39.835Z,1.28
2022-12-22T05:06:08.352Z,1.34
2022-12-22T05:08:36.599Z,1.24
2022-12-22T05:11:06.359Z,1.20
2022-12-22T05:13:34.466Z,1.29
2022-12-22T05:16:06.725Z,1.34
2022-12-22T05:18:34.925Z,1.26
2022-12-22T05:21:04.131Z,1.26
2022-12-22T05:23:32.026Z,1.29
2022-12-22T05:26:00.150Z,1.26
2022-12-22T05:28:29.666Z,1.25
2022-12-22T05:30:57.758Z,1.31
2022-12-22T05:33:25.777Z,1.31
2022-12-22T05:35:53.961Z,1.34
2022-12-22T05:38:22.082Z,1.30
2022-12-22T05:40:50.477Z,1.36
2022-12-22T05:43:18.476Z,1.26
2022-12-22T05:45:48.280Z,1.30
2022-12-22T05:48:19.882Z,1.26
2022-12-22T05:50:50.550Z,1.33
2022-12-22T05:53:18.723Z,1.38
2022-12-22T05:55:46.706Z,1.34
2022-12-22T05:58:14.601Z,1.32
2022-12-22T06:00:42.744Z,1.35
2022-12-22T06:03:12.311Z,1.40
2022-12-22T06:05:40.376Z,1.30
2022-12-22T06:08:08.309Z,1.29
2022-12-22T06:10:36.240Z,1.36
2022-12-22T06:13:04.307Z,1.37
2022-12-22T06:15:32.444Z,1.42
2022-12-22T06:18:00.678Z,1.35
2022-12-22T06:20:30.226Z,1.27
2022-12-22T06:22:58.320Z,1.34
2022-12-22T06:25:26.428Z,1.29
2022-12-22T06:27:54.362Z,1.33
2022-12-22T06:30:27.375Z,1.34
2022-12-22T06:32:59.176Z,1.29
2022-12-22T06:35:27.166Z,1.21
2022-12-22T06:37:56.606Z,1.32
2022-12-22T06:40:24.835Z,1.37
2022-12-22T06:43:18.582Z,1.35
2022-12-22T06:45:46.522Z,1.41
2022-12-22T06:48:14.772Z,1.39
2022-12-22T06:50:42.757Z,1.36
2022-12-22T06:53:12.580Z,1.21
2022-12-22T06:55:40.670Z,1.33
2022-12-22T06:58:08.670Z,1.35
2022-12-22T07:00:36.633Z,1.26
2022-12-22T07:03:04.900Z,1.27
2022-12-22T07:05:33.152Z,1.35
2022-12-22T07:08:08.056Z,1.41
2022-12-22T07:10:55.848Z,1.40
2022-12-22T07:13:24.446Z,1.43
2022-12-22T07:16:00.020Z,1.45
2022-12-22T07:18:29.670Z,1.47
2022-12-22T07:20:57.811Z,1.43
2022-12-22T07:23:26.390Z,1.35
2022-12-22T07:25:55.893Z,1.30
2022-12-22T07:28:24.257Z,1.42
2022-12-22T07:30:52.552Z,1.43
2022-12-22T07:33:20.612Z,1.35
2022-12-22T07:35:48.859Z,1.36
2022-12-22T07:38:16.845Z,1.31
2022-12-22T07:40:49.356Z,1.31
2022-12-22T07:43:20.162Z,1.40
2022-12-22T07:45:48.237Z,1.42
2022-12-22T07:48:33.606Z,1.45
2022-12-22T07:51:03.551Z,1.41
2022-12-22T07:53:31.508Z,1.47
2022-12-22T07:56:02.584Z,1.56
2022-12-22T07:58:32.838Z,1.46
2022-12-22T08:01:01.408Z,1.31
2022-12-22T08:03:29.722Z,1.43
2022-12-22T08:05:57.840Z,1.50
2022-12-22T08:08:25.884Z,1.46
2022-12-22T08:10:53.838Z,1.51
2022-12-22T08:13:22.016Z,1.56
2022-12-22T08:15:51.624Z,1.64
2022-12-22T08:18:19.617Z,1.57
2022-12-22T08:20:50.115Z,1.62
2022-12-22T08:23:18.325Z,1.54
2022-12-22T08:25:47.166Z,1.55
2022-12-22T08:28:18.025Z,1.66
2022-12-22T08:30:46.700Z,1.52
2022-12-22T08:33:16.221Z,1.67
2022-12-22T08:35:44.750Z,1.74
2022-12-22T08:38:13.496Z,1.73
2022-12-22T08:40:44.366Z,1.74
2022-12-22T08:43:12.924Z,1.82
2022-12-22T08:45:42.629Z,1.82
2022-12-22T08:48:10.960Z,1.70
2022-12-22T08:50:40.594Z,1.92
2022-12-22T08:53:23.731Z,1.93
2022-12-22T08:55:57.776Z,1.90
2022-12-22T08:58:25.829Z,1.94
2022-12-22T09:00:54.156Z,1.98
2022-12-22T09:03:22.380Z,2.03
2022-12-22T09:05:51.879Z,1.96
2022-12-22T09:08:19.970Z,1.87
2022-12-22T09:10:48.200Z,1.89
2022-12-22T09:13:16.302Z,1.87
2022-12-22T09:15:44.339Z,1.91
2022-12-22T09:18:12.346Z,1.92
2022-12-22T09:20:40.474Z,1.80
2022-12-22T09:23:09.899Z,1.86
2022-12-22T09:25:40.904Z,1.89
2022-12-22T09:28:12.252Z,1.98
2022-12-22T09:30:40.486Z,1.91
2022-12-22T09:33:08.760Z,1.88
2022-12-22T09:35:37.804Z,1.91
2022-12-22T09:38:06.294Z,1.88
2022-12-22T09:40:36.095Z,1.88
2022-12-22T09:43:04.977Z,1.79
2022-12-22T09:45:34.070Z,1.85
2022-12-22T09:48:03.372Z,1.89
2022-12-22T09:50:34.366Z,1.85
2022-12-22T09:53:05.139Z,1.92
2022-12-22T09:55:39.448Z,1.85
2022-12-22T09:58:20.692Z,1.93
2022-12-22T10:00:53.527Z,1.91
2022-12-22T10:03:29.315Z,1.87
2022-12-22T10:06:03.117Z,1.83
2022-12-22T10:08:34.408Z,1.78
2022-12-22T10:11:05.634Z,1.62
2022-12-22T10:13:33.981Z,1.76
2022-12-22T10:16:02.009Z,1.71
2022-12-22T10:18:31.064Z,1.72
2022-12-22T10:21:11.913Z,1.61
2022-12-22T10:23:40.963Z,1.70
2022-12-22T10:26:30.505Z,1.69
2022-12-22T10:29:01.397Z,1.81
2022-12-22T10:31:30.621Z,1.91
2022-12-22T10:34:10.782Z,1.81
2022-12-22T10:36:39.579Z,1.87
2022-12-22T10:39:10.196Z,1.80
2022-12-22T10:41:41.447Z,1.92
2022-12-22T10:44:11.539Z,1.93
2022-12-22T10:46:41.782Z,1.91
2022-12-22T10:49:14.667Z,1.85
2022-12-22T10:51:44.190Z,1.96
2022-12-22T10:54:24.887Z,1.86
2022-12-22T10:57:01.775Z,1.97
2022-12-22T10:59:29.797Z,2.01
2022-12-22T11:02:20.913Z,2.05
2022-12-22T11:04:49.328Z,1.98
2022-12-22T11:07:17.445Z,1.94
2022-12-22T11:09:45.696Z,1.93
2022-12-22T11:12:20.193Z,1.92
2022-12-22T11:14:52.191Z,1.91
2022-12-22T11:17:24.614Z,1.72
2022-12-22T11:19:57.958Z,1.82
2022-12-22T11:22:36.186Z,1.83
2022-12-22T11:25:16.704Z,1.91
2022-12-22T11:27:53.280Z,1.80
2022-12-22T11:30:22.247Z,1.90
2022-12-22T11:33:07.857Z,1.79
2022-12-22T11:35:43.749Z,1.86
2022-12-22T11:38:16.239Z,1.78
2022-12-22T11:40:46.941Z,1.76
2022-12-22T11:43:28.714Z,1.87
2022-12-22T11:46:06.511Z,1.89
2022-12-22T11:48:46.064Z,1.79
2022-12-22T11:51:22.208Z,1.61
2022-12-22T11:54:06.973Z,1.72
2022-12-22T11:56:40.509Z,1.78
2022-12-22T11:59:35.569Z,1.85
2022-12-22T12:02:21.104Z,1.86
2022-12-22T12:05:01.638Z,1.71
2022-12-22T12:07:33.171Z,1.68
2022-12-22T12:10:07.126Z,1.79
2022-12-22T12:12:40.127Z,1.69
2022-12-22T12:15:17.811Z,1.70
2022-12-22T12:17:52.816Z,1.64
2022-12-22T12:20:41.272Z,1.57
2022-12-22T12:23:18.543Z,1.61
2022-12-22T12:25:50.323Z,1.66
2022-12-22T12:28:22.720Z,1.70
2022-12-22T12:30:55.079Z,1.57
2022-12-22T12:33:28.974Z,1.59
2022-12-22T12:36:02.349Z,1.51
2022-12-22T12:41:26.569Z,1.65
2022-12-22T12:43:56.405Z,1.79
2022-12-22T12:46:43.096Z,1.61
2022-12-22T12:49:26.665Z,1.66
2022-12-22T12:51:56.305Z,1.63
2022-12-22T12:54:36.924Z,1.55
2022-12-22T12:57:12.291Z,1.58
2022-12-22T12:59:47.833Z,1.64
2022-12-22T13:02:34.357Z,1.63
2022-12-22T13:05:03.498Z,1.72
2022-12-22T13:07:50.024Z,1.71
2022-12-22T13:10:25.707Z,1.70
2022-12-22T13:12:54.777Z,1.56
2022-12-22T13:15:30.003Z,1.47
2022-12-22T13:17:58.529Z,1.43
2022-12-22T13:20:28.743Z,1.43
2022-12-22T13:22:58.658Z,1.39
2022-12-22T13:25:31.822Z,1.54
2022-12-22T13:27:59.927Z,1.40
2022-12-22T13:30:30.450Z,1.44
2022-12-22T13:33:02.367Z,1.49
2022-12-22T13:35:37.477Z,1.60
2022-12-22T13:38:08.260Z,1.51
2022-12-22T13:40:43.399Z,1.44
2022-12-22T13:43:12.855Z,1.29
2022-12-22T13:45:42.832Z,1.40
2022-12-22T13:48:14.030Z,1.41
2022-12-22T13:50:44.921Z,1.35
2022-12-22T13:53:34.456Z,1.45
2022-12-22T13:56:08.164Z,1.40
2022-12-22T13:58:37.975Z,1.56
2022-12-22T14:01:15.338Z,1.51
2022-12-22T14:04:03.824Z,1.45
2022-12-22T14:06:33.369Z,1.37
2022-12-22T14:09:11.284Z,1.36
2022-12-22T14:11:44.213Z,1.48
2022-12-22T14:14:19.339Z,1.46
2022-12-22T14:16:48.620Z,1.48
2022-12-22T14:19:16.998Z,1.46
2022-12-22T14:21:46.443Z,1.52
2022-12-22T14:24:18.077Z,1.49
2022-12-22T14:26:50.213Z,1.58
2022-12-22T14:29:20.467Z,1.61
2022-12-22T14:31:55.404Z,1.60
2022-12-22T14:34:27.002Z,1.72
2022-12-22T14:36:55.225Z,1.51
2022-12-22T14:39:24.219Z,1.52
2022-12-22T14:41:54.848Z,1.60
2022-12-22T14:44:24.794Z,1.54
2022-12-22T14:47:09.434Z,1.63
2022-12-22T14:49:44.963Z,1.46
2022-12-22T14:52:18.865Z,1.34
2022-12-22T14:54:48.064Z,1.45
2022-12-22T14:57:19.372Z,1.36
2022-12-22T14:59:59.458Z,1.42
2022-12-22T15:02:33.622Z,1.46
2022-12-22T15:05:17.980Z,1.40
2022-12-22T15:08:05.333Z,1.41
2022-12-22T15:10:42.633Z,1.30
2022-12-22T15:13:23.816Z,1.31
2022-12-22T15:15:51.860Z,1.41
2022-12-22T15:18:22.730Z,1.44
2022-12-22T15:20:50.776Z,1.33
2022-12-22T15:23:18.951Z,1.43
2022-12-22T15:25:46.897Z,1.39
2022-12-22T15:28:16.537Z,1.35
2022-12-22T15:30:44.767Z,1.36
2022-12-22T15:33:14.675Z,1.36
2022-12-22T15:35:43.099Z,1.44
2022-12-22T15:38:13.299Z,1.48
2022-12-22T15:40:41.236Z,1.40
2022-12-22T15:43:17.602Z,1.31
2022-12-22T15:45:59.032Z,1.24
2022-12-22T15:48:29.537Z,1.26
2022-12-22T15:50:58.848Z,1.29
2022-12-22T15:53:27.088Z,1.36
2022-12-22T15:55:56.028Z,1.30
2022-12-22T15:58:26.392Z,1.37
2022-12-22T16:00:54.466Z,1.38
2022-12-22T16:03:24.190Z,1.48
2022-12-22T16:05:53.238Z,1.43
2022-12-22T16:08:22.401Z,1.38
2022-12-22T16:10:51.080Z,1.45
2022-12-22T16:13:21.609Z,1.51
2022-12-22T16:15:49.615Z,1.51
2022-12-22T16:18:17.854Z,1.54
2022-12-22T16:20:50.239Z,1.54
2022-12-22T16:23:19.752Z,1.64
2022-12-22T16:25:48.067Z,1.76
2022-12-22T16:28:18.940Z,1.73
2022-12-22T16:30:47.356Z,1.71
2022-12-22T16:33:15.825Z,1.72
2022-12-22T16:35:43.801Z,1.80
2022-12-22T16:38:18.624Z,1.89
2022-12-22T16:40:48.902Z,1.94
2022-12-22T16:46:05.843Z,1.90
2022-12-22T16:48:35.617Z,1.81
2022-12-22T16:51:03.753Z,1.81
2022-12-22T16:53:33.183Z,1.69
2022-12-22T16:56:01.539Z,1.81
2022-12-22T16:58:29.592Z,1.87
2022-12-22T17:00:57.688Z,1.90
2022-12-22T17:03:27.190Z,1.93
2022-12-22T17:05:58.973Z,1.95
2022-12-22T17:08:28.584Z,1.98
2022-12-22T17:11:03.383Z,1.90
2022-12-22T17:13:36.731Z,1.83
2022-12-22T17:16:05.830Z,1.77
2022-12-22T17:18:34.483Z,1.73
2022-12-22T17:21:04.448Z,1.70
2022-12-22T17:23:33.749Z,1.71
2022-12-22T17:26:04.039Z,1.62
2022-12-22T17:28:32.327Z,1.70
2022-12-22T17:31:00.530Z,1.62
2022-12-22T17:33:28.650Z,1.67
2022-12-22T17:35:58.125Z,1.80
2022-12-22T17:38:27.402Z,1.77
2022-12-22T17:40:57.157Z,1.76
2022-12-22T17:43:26.470Z,1.81
2022-12-22T17:45:54.530Z,1.83
2022-12-22T17:48:22.568Z,1.96
2022-12-22T17:50:50.798Z,1.92
2022-12-22T17:53:20.499Z,2.00
2022-12-22T17:56:07.803Z,1.87
2022-12-22T17:58:38.125Z,1.84
2022-12-22T18:01:06.510Z,1.91
2022-12-22T18:03:34.686Z,1.96
2022-12-22T18:06:03.021Z,1.97
2022-12-22T18:08:31.168Z,1.91
2022-12-22T18:10:59.245Z,1.81
2022-12-22T18:13:27.217Z,1.73
2022-12-22T18:15:57.147Z,1.77
2022-12-22T18:18:25.309Z,1.72
2022-12-22T18:21:06.294Z,1.85
2022-12-22T18:23:36.046Z,1.82
2022-12-22T18:26:04.999Z,1.89
2022-12-22T18:28:33.133Z,1.95
2022-12-22T18:31:02.874Z,1.95
2022-12-22T18:33:31.094Z,2.05
2022-12-22T18:35:59.641Z,2.04
2022-12-22T18:38:29.272Z,2.04
2022-12-22T18:40:57.493Z,2.09
2022-12-22T18:43:26.177Z,2.15
2022-12-22T18:45:54.174Z,2.02
2022-12-22T18:48:23.657Z,2.00
2022-12-22T18:50:51.808Z,2.01
2022-12-22T18:53:25.657Z,2.03
2022-12-22T18:55:53.848Z,2.02
2022-12-22T18:58:21.832Z,2.07
2022-12-22T19:00:50.203Z,2.09
2022-12-22T19:03:19.936Z,2.13
2022-12-22T19:05:49.820Z,2.11
2022-12-22T19:08:18.537Z,2.13
2022-12-22T19:10:48.298Z,2.13
2022-12-22T19:13:28.109Z,2.05
2022-12-22T19:15:56.409Z,2.10
2022-12-22T19:18:27.368Z,2.13
2022-12-22T19:20:57.612Z,2.14
2022-12-22T19:23:26.785Z,2.05
2022-12-22T19:25:55.933Z,2.13
2022-12-22T19:28:27.196Z,2.03
2022-12-22T19:30:56.608Z,1.94
2022-12-22T19:33:27.664Z,2.06
2022-12-22T19:35:58.126Z,2.09
2022-12-22T19:38:27.284Z,2.16
2022-12-22T19:40:56.423Z,2.21
2022-12-22T19:43:24.855Z,2.13
2022-12-22T19:45:53.574Z,2.18
2022-12-22T19:48:22.435Z,2.24
2022-12-22T19:50:51.110Z,2.27
2022-12-22T19:53:21.141Z,2.23
2022-12-22T19:55:51.463Z,2.27
2022-12-22T19:58:21.094Z,2.24
2022-12-22T20:00:49.511Z,2.27
2022-12-22T20:03:19.355Z,2.04
2022-12-22T20:05:47.696Z,2.12
2022-12-22T20:08:15.856Z,2.17
2022-12-22T20:10:46.191Z,2.10
2022-12-22T20:13:16.485Z,2.09
2022-12-22T20:15:44.752Z,1.96
2022-12-22T20:18:15.769Z,2.03
2022-12-22T20:20:44.220Z,1.98
2022-12-22T20:23:14.525Z,1.92
2022-12-22T20:25:43.971Z,2.01
2022-12-22T20:28:18.988Z,1.97
2022-12-22T20:30:47.364Z,1.90
2022-12-22T20:33:15.778Z,1.94
2022-12-22T20:35:44.153Z,1.99
2022-12-22T20:38:16.511Z,2.02
2022-12-22T20:40:44.693Z,2.00
2022-12-22T20:43:14.945Z,1.97
2022-12-22T20:45:45.119Z,2.02
2022-12-22T20:48:20.146Z,1.94
2022-12-22T20:50:48.239Z,2.01
2022-12-22T20:53:17.903Z,2.06
2022-12-22T20:55:46.389Z,2.10
2022-12-22T20:58:18.921Z,2.07
2022-12-22T21:00:48.297Z,2.07
2022-12-22T21:03:16.700Z,2.04
2022-12-22T21:05:44.727Z,2.10
2022-12-22T21:08:20.292Z,2.02
2022-12-22T21:10:49.374Z,2.01
2022-12-22T21:13:18.063Z,1.92
2022-12-22T21:15:46.758Z,1.91
2022-12-22T21:18:17.389Z,1.86
2022-12-22T21:20:45.926Z,1.88
2022-12-22T21:23:16.640Z,1.87
2022-12-22T21:25:46.973Z,1.90
2022-12-22T21:28:17.894Z,1.93
2022-12-22T21:30:45.955Z,1.96
2022-12-22T21:33:13.881Z,1.83
2022-12-22T21:35:43.696Z,1.75
2022-12-22T21:38:16.476Z,1.88
2022-12-22T21:40:46.895Z,1.95
2022-12-22T21:43:14.907Z,1.96
2022-12-22T21:45:43.628Z,1.87
2022-12-22T21:48:13.351Z,1.80
2022-12-22T21:50:41.953Z,1.71
2022-12-22T21:53:19.759Z,1.76
2022-12-22T21:55:49.995Z,1.79
2022-12-22T21:58:18.100Z,1.82
2022-12-22T22:00:48.426Z,1.84
2022-12-22T22:03:16.984Z,1.79
2022-12-22T22:05:45.051Z,1.83
2022-12-22T22:08:14.486Z,1.83
2022-12-22T22:10:43.597Z,1.78
2022-12-22T22:13:14.130Z,1.81
2022-12-22T22:15:42.314Z,1.88
2022-12-22T22:18:14.995Z,1.94
2022-12-22T22:20:43.100Z,1.93
2022-12-22T22:23:12.373Z,1.93
2022-12-22T22:25:42.358Z,1.97
2022-12-22T22:28:11.409Z,2.02
2022-12-22T22:30:41.650Z,2.02
2022-12-22T22:33:09.735Z,2.01
2022-12-22T22:35:40.357Z,1.92
2022-12-22T22:38:08.623Z,1.98
2022-12-22T22:40:36.667Z,2.05
2022-12-22T22:43:06.180Z,2.08
2022-12-22T22:45:34.213Z,2.07
2022-12-22T22:48:07.728Z,2.11
2022-12-22T22:50:41.694Z,2.12
2022-12-22T22:53:09.714Z,2.12
2022-12-22T22:55:37.823Z,2.12
2022-12-22T22:58:07.730Z,2.06
2022-12-22T23:00:35.742Z,2.09
2022-12-22T23:03:03.898Z,2.15
2022-12-22T23:05:32.011Z,2.11
2022-12-22T23:08:00.214Z,2.09
2022-12-22T23:10:28.236Z,2.06
2022-12-22T23:12:56.264Z,2.08
2022-12-22T23:15:25.717Z,2.04
2022-12-22T23:17:53.850Z,2.06
2022-12-22T23:20:21.896Z,2.06
2022-12-22T23:22:49.912Z,2.04
2022-12-22T23:25:17.984Z,2.03
2022-12-22T23:27:46.162Z,2.03
2022-12-22T23:30:14.641Z,1.92
2022-12-22T23:32:44.089Z,1.95
2022-12-22T23:35:12.129Z,1.96
2022-12-22T23:37:40.128Z,1.92
2022-12-22T23:40:49.890Z,1.93
2022-12-22T23:42:57.133Z,1.92
2022-12-22T23:45:25.334Z,1.96
2022-12-22T23:47:54.760Z,2.00
2022-12-22T23:50:23.029Z,2.01
2022-12-22T23:52:51.881Z,1.97
2022-12-22T23:55:20.185Z,1.97
2022-12-22T23:57:50.305Z,1.98
